Time;durP1;ratioP1;P1;durP2;ratioP2;P2;SDS_P1;SDS_P2;PMS_P1;PMS_P2;Temp;Humidity;BMP_temperature;BMP_pressure;BME280_temperature;BME280_humidity;BME280_pressure;Samples;Min_cycle;Max_cycle;Signal;HPM_P1;HPM_P2
2023/02/15 00:01:42;;;;;;;41.00;21.23;;;2.30;99.90;;;;;;5079722;28;20044;-81
2023/02/15 00:04:12;;;;;;;86.90;22.70;;;2.30;99.90;;;;;;5084878;28;20555;-80
2023/02/15 00:06:38;;;;;;;66.63;22.95;;;2.30;99.90;;;;;;5087897;28;20040;-80
2023/02/15 00:09:06;;;;;;;80.90;21.67;;;2.30;99.90;;;;;;5093586;28;20134;-80
2023/02/15 00:11:49;;;;;;;47.25;22.23;;;2.30;99.90;;;;;;5095706;28;20063;-80
2023/02/15 00:14:22;;;;;;;51.08;21.67;;;2.30;99.90;;;;;;5088004;28;20533;-81
2023/02/15 00:16:51;;;;;;;33.55;20.63;;;2.30;99.90;;;;;;5085015;28;20052;-81
2023/02/15 00:19:20;;;;;;;48.40;21.13;;;2.30;99.90;;;;;;5085112;28;20051;-81
2023/02/15 00:21:48;;;;;;;62.97;21.88;;;2.30;99.90;;;;;;5089207;28;20690;-81
2023/02/15 00:24:16;;;;;;;46.78;20.40;;;2.30;99.90;;;;;;5089170;28;20060;-82
2023/02/15 00:26:44;;;;;;;48.28;21.60;;;2.30;99.90;;;;;;5088764;28;20091;-81
2023/02/15 00:29:12;;;;;;;38.22;20.63;;;2.30;99.90;;;;;;5081018;28;20048;-82
2023/02/15 00:31:39;;;;;;;44.75;19.88;;;2.30;99.90;;;;;;5088613;28;20064;-82
2023/02/15 00:34:21;;;;;;;37.17;21.58;;;2.30;99.90;;;;;;5087517;28;20472;-81
2023/02/15 00:36:49;;;;;;;31.80;21.10;;;2.20;99.90;;;;;;5086823;28;20147;-81
2023/02/15 00:39:17;;;;;;;32.65;20.95;;;2.30;99.90;;;;;;5091113;28;20578;-81
2023/02/15 00:41:44;;;;;;;31.38;19.70;;;2.30;99.90;;;;;;5082738;28;20048;-80
2023/02/15 00:44:12;;;;;;;36.65;20.52;;;2.20;99.90;;;;;;5082030;28;20048;-81
2023/02/15 00:46:39;;;;;;;37.10;20.92;;;2.20;99.90;;;;;;5080071;28;20170;-81
2023/02/15 00:49:06;;;;;;;32.83;20.42;;;2.20;99.90;;;;;;5085009;28;20087;-81
2023/02/15 00:51:33;;;;;;;31.48;20.30;;;2.20;99.90;;;;;;5088439;28;20086;-81
2023/02/15 00:53:59;;;;;;;42.55;20.25;;;2.20;99.90;;;;;;5102429;28;20048;-80
2023/02/15 00:56:28;;;;;;;37.70;20.20;;;2.20;99.90;;;;;;5081327;28;20044;-81
2023/02/15 00:58:55;;;;;;;41.05;19.98;;;2.20;99.90;;;;;;5081281;28;20165;-81
2023/02/15 01:04:15;;;;;;;164.85;24.05;;;2.20;99.90;;;;;;5598947;22;20073;-80
2023/02/15 01:06:42;;;;;;;47.80;20.23;;;2.20;99.90;;;;;;5056677;28;20463;-80
2023/02/15 01:09:09;;;;;;;63.63;20.95;;;2.20;99.90;;;;;;5046944;28;20056;-82
2023/02/15 01:11:35;;;;;;;41.88;20.15;;;2.20;99.90;;;;;;5024522;28;20060;-81
2023/02/15 01:14:03;;;;;;;39.85;21.05;;;2.20;99.90;;;;;;5030969;28;20047;-80
2023/02/15 01:16:29;;;;;;;53.70;20.70;;;2.20;99.90;;;;;;5043281;28;20052;-80
2023/02/15 01:18:56;;;;;;;57.17;20.95;;;2.20;99.90;;;;;;5046771;28;20056;-80
2023/02/15 01:21:25;;;;;;;31.40;19.33;;;2.20;99.90;;;;;;5052892;28;20055;-81
2023/02/15 01:23:52;;;;;;;33.47;19.88;;;2.20;99.90;;;;;;5041295;28;20049;-80
2023/02/15 01:26:18;;;;;;;35.60;18.30;;;2.20;99.90;;;;;;5039569;28;20132;-81
2023/02/15 01:28:45;;;;;;;39.85;20.15;;;2.20;99.90;;;;;;5049881;28;20042;-80
2023/02/15 01:31:15;;;;;;;42.38;20.00;;;2.20;99.90;;;;;;5042471;28;20051;-81
2023/02/15 01:33:42;;;;;;;69.38;21.25;;;2.20;99.90;;;;;;5038590;28;20049;-80
2023/02/15 01:36:09;;;;;;;35.28;19.52;;;2.20;99.90;;;;;;5044129;28;20049;-80
2023/02/15 01:38:36;;;;;;;42.53;19.88;;;2.20;99.90;;;;;;5036689;28;20049;-80
2023/02/15 01:44:00;;;;;;;40.55;18.42;;;2.20;99.90;;;;;;5039469;28;20055;-80
2023/02/15 01:46:35;;;;;;;37.60;19.10;;;2.10;99.90;;;;;;5044428;28;20044;-80
2023/02/15 01:49:15;;;;;;;32.28;18.45;;;2.00;99.90;;;;;;5044626;28;20105;-80
2023/02/15 01:51:43;;;;;;;;;;;2.00;99.90;;;;;;5037239;28;20053;-80
2023/02/15 01:54:19;;;;;;;32.15;18.13;;;2.00;99.90;;;;;;5035975;28;20399;-80
2023/02/15 01:56:47;;;;;;;31.30;18.02;;;2.00;99.90;;;;;;5038380;28;20423;-80
2023/02/15 01:59:19;;;;;;;38.30;17.83;;;2.10;99.90;;;;;;5046401;28;20418;-80
2023/02/15 02:01:46;;;;;;;31.95;18.38;;;2.10;99.90;;;;;;5046128;28;20080;-80
2023/02/15 02:04:25;;;;;;;44.85;18.85;;;2.10;99.90;;;;;;5050927;28;20188;-80
2023/02/15 02:06:52;;;;;;;33.63;19.45;;;2.10;99.90;;;;;;5036387;28;20526;-80
2023/02/15 02:09:19;;;;;;;37.30;18.90;;;2.10;99.90;;;;;;5038950;28;20060;-80
2023/02/15 02:11:47;;;;;;;37.67;19.48;;;2.10;99.90;;;;;;5043773;28;20048;-80
2023/02/15 02:14:15;;;;;;;54.08;19.40;;;2.10;99.90;;;;;;5044936;28;20041;-80
2023/02/15 02:17:00;;;;;;;85.47;20.52;;;2.00;99.90;;;;;;5043867;28;20479;-81
2023/02/15 02:19:49;;;;;;;54.47;20.08;;;2.00;99.90;;;;;;5045502;28;20057;-80
2023/02/15 02:23:07;;;;;;;67.35;21.75;;;2.00;99.90;;;;;;5045183;28;20132;-81
2023/02/15 02:25:55;;;;;;;64.10;20.80;;;2.00;99.90;;;;;;5032650;28;20045;-79
2023/02/15 02:28:59;;;;;;;35.80;19.38;;;2.00;99.90;;;;;;5047011;28;20070;-80
2023/02/15 02:31:41;;;;;;;36.75;19.30;;;2.00;99.90;;;;;;5047333;28;20049;-80
2023/02/15 02:34:40;;;;;;;47.63;19.65;;;2.00;99.90;;;;;;5043879;28;20560;-80
2023/02/15 02:37:42;;;;;;;49.25;20.02;;;2.10;99.90;;;;;;5036453;28;20045;-79
2023/02/15 02:40:16;;;;;;;53.17;19.40;;;2.10;99.90;;;;;;5014192;28;20092;-80
2023/02/15 02:42:49;;;;;;;47.03;18.75;;;2.10;99.90;;;;;;5043301;28;20052;-80
2023/02/15 02:45:25;;;;;;;57.08;18.83;;;2.10;99.90;;;;;;5045747;28;20055;-80
2023/02/15 02:47:58;;;;;;;55.97;18.55;;;2.10;99.90;;;;;;5046545;28;20045;-80
2023/02/15 02:50:28;;;;;;;57.50;18.48;;;2.10;99.90;;;;;;5039100;28;20076;-80
2023/02/15 02:52:56;;;;;;;;;;;2.10;99.90;;;;;;5042895;28;20079;-80
2023/02/15 02:55:29;;;;;;;36.35;18.77;;;2.10;99.90;;;;;;5046875;28;20421;-80
2023/02/15 02:58:10;;;;;;;42.15;18.65;;;2.10;99.90;;;;;;5031133;28;20053;-80
2023/02/15 03:00:48;;;;;;;60.33;18.95;;;2.10;99.90;;;;;;5047505;28;20135;-80
2023/02/15 03:03:40;;;;;;;55.63;19.67;;;2.10;99.90;;;;;;5037272;28;20059;-80
2023/02/15 03:06:35;;;;;;;67.85;19.85;;;2.10;99.90;;;;;;5035364;28;20045;-81
2023/02/15 03:09:14;;;;;;;106.68;19.88;;;2.10;99.90;;;;;;5044044;28;20081;-80
2023/02/15 03:11:43;;;;;;;53.38;17.95;;;2.10;99.90;;;;;;5044479;28;20107;-80
2023/02/15 03:14:13;;;;;;;65.80;19.20;;;2.10;99.90;;;;;;5054125;28;20084;-80
2023/02/15 03:16:42;;;;;;;52.90;20.10;;;2.10;99.90;;;;;;5054225;28;20064;-80
2023/02/15 03:19:21;;;;;;;84.75;19.00;;;2.10;99.90;;;;;;5041387;28;20053;-81
2023/02/15 03:22:09;;;;;;;49.20;19.30;;;2.10;99.90;;;;;;5040692;28;20064;-80
2023/02/15 03:24:58;;;;;;;55.28;19.20;;;2.10;99.90;;;;;;5045035;28;20064;-80
2023/02/15 03:27:31;;;;;;;54.70;19.75;;;2.10;99.90;;;;;;5044709;28;20053;-80
2023/02/15 03:29:59;;;;;;;116.82;21.92;;;2.10;99.90;;;;;;5044960;28;20103;-81
2023/02/15 03:32:29;;;;;;;44.85;21.60;;;2.00;99.90;;;;;;5040445;28;20046;-81
2023/02/15 03:34:57;;;;;;;68.43;21.83;;;2.00;99.90;;;;;;5039045;28;20058;-80
2023/02/15 03:37:33;;;;;;;89.68;21.83;;;2.00;99.90;;;;;;5044813;28;20050;-80
2023/02/15 03:43:04;;;;;;;65.40;20.95;;;2.00;99.90;;;;;;5048323;28;20060;-80
2023/02/15 03:45:32;;;;;;;130.50;23.83;;;2.00;99.90;;;;;;5039663;28;20052;-80
2023/02/15 03:48:01;;;;;;;65.40;19.35;;;2.00;99.90;;;;;;5042150;28;20057;-80
2023/02/15 03:53:20;;;;;;;73.95;20.83;;;1.90;99.90;;;;;;5043043;28;20045;-80
2023/02/15 03:55:54;;;;;;;98.13;20.88;;;1.90;99.90;;;;;;5052371;28;20052;-80
2023/02/15 04:01:56;;;;;;;45.10;20.60;;;1.90;99.90;;;;;;5039618;28;20075;-80
2023/02/15 04:04:38;;;;;;;45.30;20.13;;;1.90;99.90;;;;;;5043701;28;20569;-81
2023/02/15 04:07:07;;;;;;;62.15;20.23;;;1.80;99.90;;;;;;5049529;28;20064;-80
2023/02/15 04:12:20;;;;;;;54.80;19.42;;;1.70;99.90;;;;;;5045803;28;20042;-82
2023/02/15 04:17:32;;;;;;;78.85;19.10;;;1.70;99.90;;;;;;5039801;28;20427;-80
2023/02/15 04:25:29;;;;;;;52.58;20.13;;;1.60;99.90;;;;;;5055854;28;20087;-80
2023/02/15 04:27:56;;;;;;;56.08;18.58;;;1.60;99.90;;;;;;5040189;28;20101;-80
2023/02/15 04:30:25;;;;;;;64.68;18.20;;;1.60;99.90;;;;;;5045796;28;20049;-80
2023/02/15 04:32:53;;;;;;;47.25;18.77;;;1.60;99.90;;;;;;5048586;28;20508;-80
2023/02/15 04:35:19;;;;;;;30.65;18.55;;;1.60;99.90;;;;;;5051012;28;20403;-79
2023/02/15 04:37:46;;;;;;;48.03;19.80;;;1.60;99.90;;;;;;5050919;28;20074;-80
2023/02/15 04:40:14;;;;;;;47.38;17.80;;;1.60;99.90;;;;;;5054335;28;20067;-80
2023/02/15 04:42:47;;;;;;;39.97;18.95;;;1.70;99.90;;;;;;5042039;28;20099;-80
2023/02/15 04:45:14;;;;;;;73.85;19.60;;;1.70;99.90;;;;;;5042828;28;20051;-80
2023/02/15 04:47:41;;;;;;;55.22;19.20;;;1.70;99.90;;;;;;5047479;28;20068;-80
2023/02/15 04:50:08;;;;;;;34.08;18.02;;;1.70;99.90;;;;;;5051821;28;20056;-80
2023/02/15 04:52:36;;;;;;;46.78;18.42;;;1.70;99.90;;;;;;5049367;28;20148;-80
2023/02/15 04:55:02;;;;;;;53.38;18.83;;;1.70;99.90;;;;;;5046318;28;20053;-80
2023/02/15 04:57:29;;;;;;;60.30;19.48;;;1.70;99.90;;;;;;5040964;28;20081;-80
2023/02/15 04:59:58;;;;;;;57.67;20.02;;;1.70;99.90;;;;;;5042383;28;20140;-80
2023/02/15 05:02:24;;;;;;;53.10;19.77;;;1.70;99.90;;;;;;5042830;28;20050;-80
2023/02/15 05:04:51;;;;;;;67.50;20.98;;;1.70;99.90;;;;;;5048152;28;20053;-80
2023/02/15 05:07:20;;;;;;;48.83;19.52;;;1.70;99.90;;;;;;5055942;28;20080;-80
2023/02/15 05:09:47;;;;;;;59.65;18.80;;;1.70;99.90;;;;;;5037583;28;20049;-79
2023/02/15 05:12:14;;;;;;;55.42;18.20;;;1.60;99.90;;;;;;5038426;28;20046;-81
2023/02/15 05:14:40;;;;;;;52.17;19.52;;;1.60;99.90;;;;;;5043606;28;20060;-80
2023/02/15 05:17:07;;;;;;;77.07;18.50;;;1.50;99.90;;;;;;5047722;28;20081;-79
2023/02/15 05:19:34;;;;;;;63.58;17.38;;;1.50;99.90;;;;;;5049240;28;20053;-80
2023/02/15 05:22:00;;;;;;;57.45;17.20;;;1.50;99.90;;;;;;5049581;28;20052;-79
2023/02/15 05:30:15;;;;;;;43.13;16.27;;;1.40;99.90;;;;;;5042182;28;20071;-79
2023/02/15 05:32:42;;;;;;;37.92;14.98;;;1.40;99.90;;;;;;5050109;28;20498;-79
2023/02/15 05:35:14;;;;;;;39.00;15.95;;;1.40;99.90;;;;;;5053075;28;20064;-80
2023/02/15 05:37:41;;;;;;;43.42;15.80;;;1.40;99.90;;;;;;5044228;28;20045;-80
2023/02/15 05:40:08;;;;;;;23.45;15.18;;;1.30;99.90;;;;;;5044087;28;20046;-78
2023/02/15 05:42:35;;;;;;;51.72;15.45;;;1.30;99.90;;;;;;5047670;28;20072;-78
2023/02/15 05:45:03;;;;;;;24.70;14.63;;;1.40;99.90;;;;;;5047857;28;20529;-80
2023/02/15 05:47:30;;;;;;;25.92;15.55;;;1.30;99.90;;;;;;5044741;28;20072;-81
2023/02/15 05:49:56;;;;;;;30.40;16.63;;;1.30;99.90;;;;;;5051622;28;20484;-80
2023/02/15 05:52:23;;;;;;;29.90;15.52;;;1.40;99.90;;;;;;5040526;28;20492;-80
2023/02/15 05:54:50;;;;;;;60.60;16.45;;;1.40;99.90;;;;;;5040517;28;20045;-81
2023/02/15 05:57:16;;;;;;;50.03;16.40;;;1.40;99.90;;;;;;5044738;28;20050;-80
2023/02/15 05:59:43;;;;;;;28.80;16.15;;;1.30;99.90;;;;;;5046705;28;20055;-79
2023/02/15 06:02:11;;;;;;;41.35;17.38;;;1.30;99.90;;;;;;5051754;28;20053;-80
2023/02/15 06:04:38;;;;;;;44.25;17.50;;;1.20;99.90;;;;;;5046130;28;20053;-82
2023/02/15 06:07:04;;;;;;;32.97;17.60;;;1.20;99.90;;;;;;5037369;28;20075;-80
2023/02/15 06:09:31;;;;;;;37.90;18.05;;;1.20;99.90;;;;;;5040023;28;20052;-80
2023/02/15 06:11:57;;;;;;;49.75;17.98;;;1.20;99.90;;;;;;5040997;28;20041;-80
2023/02/15 06:14:24;;;;;;;49.65;18.00;;;1.20;99.90;;;;;;5044753;28;20041;-80
2023/02/15 06:16:51;;;;;;;40.78;19.75;;;1.20;99.90;;;;;;5048127;28;20412;-81
2023/02/15 06:19:17;;;;;;;120.35;22.55;;;1.20;99.90;;;;;;5047241;28;20061;-80
2023/02/15 06:21:44;;;;;;;55.38;20.98;;;1.20;99.90;;;;;;5038701;28;20055;-80
2023/02/15 06:24:11;;;;;;;37.65;21.35;;;1.30;99.90;;;;;;5041894;28;20053;-80
2023/02/15 06:26:38;;;;;;;40.40;20.25;;;1.30;99.90;;;;;;5045075;28;20056;-80
2023/02/15 06:29:04;;;;;;;40.83;18.95;;;1.30;99.90;;;;;;5045546;28;20057;-80
2023/02/15 06:31:31;;;;;;;52.75;19.02;;;1.30;99.90;;;;;;5046330;28;20064;-80
2023/02/15 06:34:00;;;;;;;36.50;18.60;;;1.30;99.90;;;;;;5041415;28;20045;-80
2023/02/15 06:36:28;;;;;;;38.75;18.42;;;1.30;99.90;;;;;;5037367;28;20049;-80
2023/02/15 06:38:55;;;;;;;69.05;21.08;;;1.30;99.90;;;;;;5038736;28;20050;-80
2023/02/15 06:41:23;;;;;;;32.25;19.00;;;1.30;99.90;;;;;;5043492;28;20064;-81
2023/02/15 06:43:50;;;;;;;43.03;20.60;;;1.30;99.90;;;;;;5046900;28;20053;-79
2023/02/15 06:46:17;;;;;;;48.13;22.50;;;1.30;99.90;;;;;;5044317;28;20045;-80
2023/02/15 06:48:44;;;;;;;46.75;21.58;;;1.30;99.90;;;;;;5027200;28;20068;-80
2023/02/15 06:51:10;;;;;;;48.97;21.45;;;1.30;99.90;;;;;;5037306;28;20068;-80
2023/02/15 06:53:37;;;;;;;74.60;21.08;;;1.30;99.90;;;;;;5043269;28;20050;-80
2023/02/15 06:56:06;;;;;;;40.22;18.80;;;1.30;99.90;;;;;;5042428;28;20046;-80
2023/02/15 06:58:33;;;;;;;45.17;17.85;;;1.30;99.90;;;;;;5022972;28;20057;-80
2023/02/15 07:01:00;;;;;;;52.20;19.10;;;1.30;99.90;;;;;;5049933;28;20055;-80
2023/02/15 07:03:26;;;;;;;48.28;18.30;;;1.20;99.90;;;;;;5036352;28;20045;-80
2023/02/15 07:05:58;;;;;;;38.90;19.08;;;1.20;99.90;;;;;;5038644;28;20057;-79
2023/02/15 07:08:26;;;;;;;37.92;18.30;;;1.20;99.90;;;;;;5041123;28;20099;-80
2023/02/15 07:12:40;;;;;;;35.55;20.10;;;1.30;99.90;;;;;;5049102;28;20044;-79
2023/02/15 07:13:44;;;;;;;42.28;19.50;;;1.30;99.90;;;;;;5045419;28;20140;-80
2023/02/15 07:16:11;;;;;;;33.50;18.60;;;1.30;99.90;;;;;;5038882;28;20045;-80
2023/02/15 07:18:38;;;;;;;30.23;17.58;;;1.30;99.90;;;;;;5041226;28;20114;-80
2023/02/15 07:21:07;;;;;;;34.88;19.13;;;1.30;99.90;;;;;;5043987;28;20041;-80
2023/02/15 07:23:38;;;;;;;27.05;16.80;;;1.30;99.90;;;;;;5043039;28;20053;-80
2023/02/15 07:26:05;;;;;;;30.42;17.48;;;1.20;99.90;;;;;;5051259;28;20128;-80
2023/02/15 07:28:34;;;;;;;27.98;18.63;;;1.20;99.90;;;;;;5054749;28;20049;-80
2023/02/15 07:31:04;;;;;;;30.65;17.42;;;1.30;99.90;;;;;;5043657;28;20042;-80
2023/02/15 07:33:31;;;;;;;28.77;17.35;;;1.30;99.90;;;;;;5042095;28;20099;-80
2023/02/15 07:36:01;;;;;;;46.90;17.50;;;1.30;99.90;;;;;;5047727;28;20045;-81
2023/02/15 07:38:34;;;;;;;39.05;18.58;;;1.40;99.90;;;;;;5042447;28;20072;-80
2023/02/15 07:41:04;;;;;;;43.30;17.30;;;1.40;99.90;;;;;;5047061;28;20483;-80
2023/02/15 07:43:33;;;;;;;44.60;16.07;;;1.40;99.90;;;;;;5047558;28;20500;-80
2023/02/15 07:46:01;;;;;;;42.83;17.80;;;1.50;99.90;;;;;;5038934;28;20651;-80
2023/02/15 07:48:28;;;;;;;39.38;15.73;;;1.50;99.90;;;;;;5043881;28;20165;-80
2023/02/15 07:50:59;;;;;;;38.40;17.33;;;1.60;99.90;;;;;;5052623;28;20051;-80
2023/02/15 07:53:26;;;;;;;48.78;15.40;;;1.60;99.90;;;;;;5050932;28;20041;-80
2023/02/15 07:55:53;;;;;;;41.13;15.93;;;1.60;99.90;;;;;;5041570;28;20488;-80
2023/02/15 07:58:20;;;;;;;55.08;16.50;;;1.60;99.90;;;;;;5043463;28;20440;-80
2023/02/15 08:00:56;;;;;;;49.08;15.27;;;1.70;99.90;;;;;;5040307;28;20052;-80
2023/02/15 08:03:26;;;;;;;32.38;15.95;;;1.60;99.90;;;;;;5040591;28;20155;-80
2023/02/15 08:05:58;;;;;;;93.47;17.20;;;1.60;99.90;;;;;;5041662;28;20512;-81
2023/02/15 08:08:29;;;;;;;31.00;16.70;;;1.70;99.90;;;;;;5046982;28;20053;-80
2023/02/15 08:14:02;;;;;;;59.83;16.88;;;1.80;99.90;;;;;;5037900;28;20050;-80
2023/02/15 08:16:37;;;;;;;95.80;16.80;;;1.80;99.90;;;;;;5040469;28;20049;-80
2023/02/15 08:19:07;;;;;;;41.15;15.10;;;1.90;99.90;;;;;;5029597;28;20045;-80
2023/02/15 08:21:36;;;;;;;34.03;16.52;;;1.90;99.90;;;;;;5028788;28;20057;-80
2023/02/15 08:24:04;;;;;;;29.10;16.17;;;1.90;99.90;;;;;;5039765;28;20132;-80
2023/02/15 08:26:31;;;;;;;29.60;14.77;;;2.00;99.90;;;;;;5036792;28;20056;-80
2023/02/15 08:28:58;;;;;;;60.13;16.90;;;2.00;99.90;;;;;;5022093;28;20050;-81
2023/02/15 08:31:26;;;;;;;34.30;16.25;;;2.00;99.90;;;;;;5024506;28;20412;-80
2023/02/15 08:33:55;;;;;;;26.83;16.33;;;2.10;99.90;;;;;;5039386;28;20467;-80
2023/02/15 08:36:24;;;;;;;53.53;15.98;;;2.10;99.90;;;;;;5044649;28;20055;-80
2023/02/15 08:38:51;;;;;;;24.88;15.93;;;2.10;99.90;;;;;;5048975;28;20056;-80
2023/02/15 08:41:26;;;;;;;46.92;15.98;;;2.20;99.90;;;;;;5019822;28;20401;-81
2023/02/15 08:43:54;;;;;;;71.55;16.20;;;2.20;99.90;;;;;;5042671;28;20045;-80
2023/02/15 08:46:23;;;;;;;77.47;16.77;;;2.20;99.90;;;;;;5037362;28;20049;-80
2023/02/15 08:48:50;;;;;;;41.33;14.93;;;2.10;99.90;;;;;;5035239;28;20084;-80
2023/02/15 08:51:19;;;;;;;29.83;15.23;;;2.10;99.90;;;;;;5043833;28;20044;-81
2023/02/15 08:53:51;;;;;;;25.50;16.10;;;2.20;99.90;;;;;;5041600;28;20052;-80
2023/02/15 08:56:19;;;;;;;23.27;15.43;;;2.20;99.90;;;;;;5024410;28;20129;-80
2023/02/15 08:58:46;;;;;;;25.58;15.73;;;2.20;99.90;;;;;;5053087;28;20061;-80
2023/02/15 09:01:22;;;;;;;23.02;16.17;;;2.30;99.90;;;;;;5044624;28;20057;-81
2023/02/15 09:03:53;;;;;;;24.17;16.05;;;2.40;99.90;;;;;;5042911;28;20048;-81
2023/02/15 09:06:21;;;;;;;26.08;16.73;;;2.40;99.90;;;;;;5038184;28;20049;-80
2023/02/15 09:08:48;;;;;;;26.17;16.33;;;2.50;99.90;;;;;;5029845;28;20508;-81
2023/02/15 09:11:22;;;;;;;25.83;17.00;;;2.50;99.90;;;;;;5027073;28;20052;-81
2023/02/15 09:13:57;;;;;;;25.88;16.77;;;2.60;99.90;;;;;;5026969;28;20048;-80
2023/02/15 09:16:27;;;;;;;29.20;17.58;;;2.70;99.90;;;;;;5039803;28;20049;-80
2023/02/15 09:18:57;;;;;;;31.80;16.33;;;2.80;99.90;;;;;;5028009;28;20481;-80
2023/02/15 09:21:25;;;;;;;27.40;18.65;;;2.90;99.90;;;;;;5032374;28;20498;-80
2023/02/15 09:23:56;;;;;;;30.02;19.55;;;2.90;99.90;;;;;;5026370;28;20053;-81
2023/02/15 09:26:24;;;;;;;31.70;20.27;;;3.00;99.90;;;;;;5030674;28;20060;-79
2023/02/15 09:28:56;;;;;;;28.55;18.88;;;3.00;99.90;;;;;;5028830;28;20077;-81
2023/02/15 09:31:25;;;;;;;30.98;20.05;;;3.00;99.90;;;;;;5041785;28;20036;-80
2023/02/15 09:33:53;;;;;;;29.43;20.23;;;3.00;99.90;;;;;;5034755;28;20056;-80
2023/02/15 09:36:34;;;;;;;29.70;20.75;;;3.00;99.90;;;;;;5040707;28;20052;-80
2023/02/15 09:39:10;;;;;;;30.55;20.52;;;3.10;99.90;;;;;;5030955;28;20058;-79
2023/02/15 09:41:49;;;;;;;32.13;21.45;;;3.10;99.90;;;;;;5025648;28;20076;-80
2023/02/15 09:44:34;;;;;;;33.90;20.95;;;3.10;99.90;;;;;;5034395;28;20045;-78
2023/02/15 09:47:04;;;;;;;32.35;20.27;;;3.10;99.90;;;;;;5024546;28;20054;-80
2023/02/15 09:49:42;;;;;;;36.45;21.95;;;3.10;99.90;;;;;;5030619;28;20049;-80
2023/02/15 09:52:21;;;;;;;36.80;21.95;;;3.20;99.90;;;;;;5027492;28;20864;-80
2023/02/15 09:55:07;;;;;;;32.63;21.27;;;3.20;99.90;;;;;;5024635;28;20042;-80
2023/02/15 09:58:07;;;;;;;33.53;21.85;;;3.30;99.90;;;;;;5031480;28;20052;-80
2023/02/15 10:00:53;;;;;;;;;;;3.40;99.90;;;;;;5046630;28;20139;-80
2023/02/15 10:03:50;;;;;;;33.83;21.75;;;3.40;99.90;;;;;;5039329;28;19964;-80
2023/02/15 10:06:42;;;;;;;39.40;23.75;;;3.50;99.90;;;;;;5020657;28;20049;-80
2023/02/15 10:09:17;;;;;;;35.75;22.48;;;3.60;99.90;;;;;;5033916;28;20049;-80
2023/02/15 10:11:57;;;;;;;37.70;21.95;;;3.70;99.90;;;;;;5030029;28;20046;-80
2023/02/15 10:14:38;;;;;;;32.35;20.85;;;3.60;99.90;;;;;;5033924;28;20052;-79
2023/02/15 10:17:14;;;;;;;33.72;20.67;;;3.40;99.90;;;;;;5035287;28;20042;-80
2023/02/15 10:20:10;;;;;;;34.05;21.92;;;3.40;99.90;;;;;;5019470;28;20041;-81
2023/02/15 10:23:22;;;;;;;35.95;22.27;;;3.40;99.90;;;;;;5026481;28;20046;-78
2023/02/15 10:25:55;;;;;;;34.60;21.83;;;3.40;99.90;;;;;;5027953;28;20049;-79
2023/02/15 10:28:42;;;;;;;30.73;21.23;;;3.40;99.90;;;;;;5034580;28;20045;-80
2023/02/15 10:31:38;;;;;;;31.75;21.55;;;3.30;99.90;;;;;;5042984;28;20048;-80
2023/02/15 10:34:21;;;;;;;29.67;19.23;;;3.20;99.90;;;;;;5023490;28;20042;-80
2023/02/15 10:37:20;;;;;;;40.97;22.08;;;3.20;99.90;;;;;;5023180;28;20515;-80
2023/02/15 10:40:14;;;;;;;36.45;23.08;;;3.10;99.90;;;;;;5026385;28;20046;-80
2023/02/15 10:42:50;;;;;;;35.15;21.35;;;3.10;99.90;;;;;;5029621;28;20056;-80
2023/02/15 10:45:25;;;;;;;32.78;20.80;;;3.10;99.90;;;;;;5037545;28;20049;-79
2023/02/15 10:48:19;;;;;;;27.73;19.88;;;3.10;99.90;;;;;;5030698;28;20064;-80
2023/02/15 10:50:59;;;;;;;31.08;20.92;;;3.20;99.90;;;;;;5028686;28;20053;-79
2023/02/15 10:53:57;;;;;;;34.05;21.63;;;3.20;99.90;;;;;;5028966;28;20042;-80
2023/02/15 10:56:36;;;;;;;34.75;23.60;;;3.20;99.90;;;;;;5033432;28;20675;-80
2023/02/15 10:59:09;;;;;;;38.28;23.05;;;3.20;99.90;;;;;;5040659;28;20056;-79
2023/02/15 11:01:40;;;;;;;36.25;22.75;;;3.20;99.90;;;;;;5029661;28;20055;-81
2023/02/15 11:04:26;;;;;;;33.90;22.52;;;3.20;99.90;;;;;;5036759;28;20053;-80
2023/02/15 11:07:02;;;;;;;37.88;24.23;;;3.30;99.90;;;;;;5029510;28;20071;-81
2023/02/15 11:09:50;;;;;;;34.35;23.60;;;3.30;99.90;;;;;;5028015;28;20060;-80
2023/02/15 11:12:24;;;;;;;37.33;26.17;;;3.30;99.90;;;;;;5032515;28;20049;-80
2023/02/15 11:15:01;;;;;;;44.30;27.92;;;3.30;99.90;;;;;;5041057;28;20129;-81
2023/02/15 11:17:37;;;;;;;40.08;29.30;;;3.40;99.90;;;;;;5032099;28;20056;-80
2023/02/15 11:20:12;;;;;;;41.58;30.75;;;3.40;99.90;;;;;;5031170;28;20053;-81
2023/02/15 11:22:40;;;;;;;37.70;25.05;;;3.40;99.90;;;;;;5030609;28;20045;-80
2023/02/15 11:25:22;;;;;;;39.20;27.05;;;3.40;99.90;;;;;;5031914;28;20132;-81
2023/02/15 11:27:50;;;;;;;39.15;26.88;;;3.50;99.90;;;;;;5029875;28;20057;-81
2023/02/15 11:30:22;;;;;;;39.40;27.75;;;3.50;99.90;;;;;;5046178;28;20045;-80
2023/02/15 11:32:56;;;;;;;32.72;24.45;;;3.50;99.90;;;;;;5038415;28;20044;-80
2023/02/15 11:35:36;;;;;;;35.45;24.02;;;3.50;99.90;;;;;;5037080;28;20149;-79
2023/02/15 11:38:12;;;;;;;30.73;21.70;;;3.50;99.90;;;;;;5042507;28;20605;-80
2023/02/15 11:40:58;;;;;;;35.95;23.27;;;3.60;99.90;;;;;;5041084;28;20045;-79
2023/02/15 11:43:42;;;;;;;34.08;23.90;;;3.60;99.90;;;;;;5038595;28;20057;-79
2023/02/15 11:46:12;;;;;;;34.45;24.20;;;3.70;99.90;;;;;;5023262;28;20053;-80
2023/02/15 11:48:39;;;;;;;33.42;22.83;;;3.70;99.90;;;;;;5044558;28;20145;-80
2023/02/15 11:51:12;;;;;;;35.33;23.05;;;3.70;99.90;;;;;;5032432;28;20122;-80
2023/02/15 11:53:39;;;;;;;29.88;22.08;;;3.80;99.90;;;;;;5040247;28;20045;-81
2023/02/15 11:56:15;;;;;;;31.67;22.35;;;3.80;99.90;;;;;;5039610;28;20100;-80
2023/02/15 11:58:51;;;;;;;36.92;24.05;;;3.90;99.90;;;;;;5031059;28;20052;-80
2023/02/15 12:01:40;;;;;;;31.13;21.90;;;4.00;99.90;;;;;;5043215;28;20045;-80
2023/02/15 12:04:31;;;;;;;29.80;21.20;;;4.00;99.90;;;;;;5030969;28;20045;-80
2023/02/15 12:07:21;;;;;;;32.83;21.52;;;4.10;99.90;;;;;;5037778;28;20095;-80
2023/02/15 12:09:59;;;;;;;30.02;20.95;;;4.10;99.90;;;;;;5038908;28;20057;-80
2023/02/15 12:12:28;;;;;;;28.38;19.92;;;4.20;99.90;;;;;;5029189;28;20042;-80
2023/02/15 12:14:57;;;;;;;32.15;21.98;;;4.20;99.90;;;;;;5028973;28;20060;-79
2023/02/15 12:17:27;;;;;;;30.02;21.33;;;4.30;99.90;;;;;;5044829;28;20056;-77
2023/02/15 12:19:59;;;;;;;;;;;4.40;99.90;;;;;;5037263;28;20064;-80
2023/02/15 12:22:32;;;;;;;29.27;20.60;;;4.40;99.90;;;;;;5043324;28;20440;-79
2023/02/15 12:25:30;;;;;;;27.38;19.80;;;4.50;99.90;;;;;;5041992;28;20060;-79
2023/02/15 12:27:57;;;;;;;30.33;21.48;;;4.60;99.90;;;;;;5034327;28;20049;-80
2023/02/15 12:30:34;;;;;;;31.25;22.58;;;4.60;99.90;;;;;;5037024;28;20052;-79
2023/02/15 12:33:15;;;;;;;31.95;21.70;;;4.70;99.90;;;;;;5029208;28;20041;-80
2023/02/15 12:35:43;;;;;;;31.52;22.30;;;4.80;99.90;;;;;;5029516;28;20061;-79
2023/02/15 12:38:10;;;;;;;30.88;23.25;;;4.80;99.90;;;;;;5032809;28;20064;-80
2023/02/15 12:40:38;;;;;;;46.63;35.53;;;4.90;99.90;;;;;;5026223;28;20939;-79
2023/02/15 12:43:08;;;;;;;44.65;31.85;;;5.00;99.90;;;;;;5022358;28;20049;-80
2023/02/15 12:45:37;;;;;;;44.95;32.47;;;5.10;99.90;;;;;;5034230;28;20532;-79
2023/02/15 12:48:11;;;;;;;51.00;35.63;;;5.20;99.90;;;;;;5043298;28;20057;-80
2023/02/15 12:50:40;;;;;;;51.28;32.53;;;5.30;99.90;;;;;;5045405;28;20067;-81
2023/02/15 12:53:23;;;;;;;39.60;29.90;;;5.40;99.90;;;;;;5039136;28;20056;-81
2023/02/15 12:56:01;;;;;;;46.20;29.85;;;5.40;99.90;;;;;;5022484;28;20049;-80
2023/02/15 12:58:30;;;;;;;43.60;29.02;;;5.50;99.90;;;;;;5022364;28;20125;-80
2023/02/15 13:01:08;;;;;;;45.20;29.02;;;5.60;99.90;;;;;;5024229;28;20053;-80
2023/02/15 13:03:38;;;;;;;45.20;29.00;;;5.60;99.90;;;;;;5036064;28;20053;-80
2023/02/15 13:06:08;;;;;;;39.50;27.73;;;5.60;99.90;;;;;;5043610;28;20080;-80
2023/02/15 13:08:46;;;;;;;39.17;26.77;;;5.70;99.90;;;;;;5039062;28;20439;-80
2023/02/15 13:11:26;;;;;;;38.00;26.35;;;5.70;99.90;;;;;;5023079;28;20045;-80
2023/02/15 13:14:00;;;;;;;39.05;27.20;;;5.80;99.90;;;;;;5036238;28;20572;-80
2023/02/15 13:16:31;;;;;;;43.75;29.52;;;5.80;99.90;;;;;;5029070;28;20125;-80
2023/02/15 13:19:06;;;;;;;37.72;25.67;;;5.90;99.90;;;;;;5031283;28;20045;-81
2023/02/15 13:21:38;;;;;;;38.20;26.95;;;5.90;99.90;;;;;;5036399;28;20056;-80
2023/02/15 13:24:27;;;;;;;35.30;25.52;;;5.90;99.90;;;;;;5016699;28;20064;-80
2023/02/15 13:26:56;;;;;;;37.05;25.40;;;6.00;99.90;;;;;;5027601;28;20479;-80
2023/02/15 13:29:44;;;;;;;50.15;31.60;;;6.10;99.90;;;;;;5036012;28;20132;-80
2023/02/15 13:32:36;;;;;;;35.17;26.02;;;6.10;99.90;;;;;;5044012;28;20435;-80
2023/02/15 13:35:06;;;;;;;37.15;25.10;;;6.20;99.90;;;;;;5044888;28;20045;-80
2023/02/15 13:37:33;;;;;;;46.47;28.88;;;6.20;99.90;;;;;;5037945;28;20045;-80
2023/02/15 13:40:30;;;;;;;34.63;24.58;;;6.30;99.90;;;;;;5021983;28;20133;-81
2023/02/15 13:43:12;;;;;;;36.90;26.25;;;6.30;99.90;;;;;;5024128;28;20049;-80